Saint-Francois-Du-Lac, Canada
Current Conditions -  °F | °C
As of 12:00 PM on Thursday 23 Oct 2014 (Local Time) from CYRQ Reporting Station
Overcast Overcast  
Wind Chill: 50°   Ceiling: 10000
Heat Index: 50°   Visibility: 9mi
Dew Point: 39°   Wind: 15mph
Humidity: 66%   Direction: 40°NE
Pressure: 30.09"   Gusts: 21mph
Location:  46.07°N, 72.83°W
Report Text: CYRQ 231600Z AUTO 04013G18KT 9SM OVC100 10/04 A3009 RMK SLP191
Loading
Personal Weather Stations






























Interactive Weather Map
Tropical Storm Tracking
New forecast layout! Learn more

10-Day Weather Forecast

Advertisements
Track Severe Weather on mobile